createdAt,value
2018-07-25T00:00:59.852Z,23.10
2018-07-25T00:03:28.712Z,23.00
2018-07-25T00:05:57.161Z,23.10
2018-07-25T00:08:25.539Z,23.00
2018-07-25T00:10:54.672Z,23.00
2018-07-25T00:13:24.532Z,22.90
2018-07-25T00:15:52.987Z,23.10
2018-07-25T00:20:49.920Z,23.00
2018-07-25T00:23:18.325Z,23.00
2018-07-25T00:25:46.712Z,22.90
2018-07-25T00:28:15.151Z,23.00
2018-07-25T00:30:43.659Z,22.90
2018-07-25T00:33:12.115Z,22.90
2018-07-25T00:35:40.463Z,22.90
2018-07-25T00:38:09.036Z,23.00
2018-07-25T00:40:37.626Z,22.90
2018-07-25T00:43:06.204Z,22.90
2018-07-25T00:45:34.709Z,22.90
2018-07-25T00:48:03.165Z,23.00
2018-07-25T00:52:59.695Z,23.00
2018-07-25T00:55:28.498Z,23.00
2018-07-25T00:57:56.921Z,22.90
2018-07-25T01:00:25.340Z,22.90
2018-07-25T01:02:53.879Z,22.90
2018-07-25T01:05:22.323Z,22.90
2018-07-25T01:07:50.742Z,22.80
2018-07-25T01:10:19.191Z,22.90
2018-07-25T01:15:15.740Z,22.80
2018-07-25T01:17:44.445Z,22.90
2018-07-25T01:20:12.838Z,22.80
2018-07-25T01:22:41.214Z,22.80
2018-07-25T01:25:09.668Z,22.60
2018-07-25T01:27:38.083Z,22.70
2018-07-25T01:30:06.504Z,22.70
2018-07-25T01:32:35.345Z,22.50
2018-07-25T01:35:03.755Z,22.50
2018-07-25T01:37:32.312Z,22.60
2018-07-25T01:40:01.228Z,22.60
2018-07-25T01:42:29.760Z,22.60
2018-07-25T01:44:58.244Z,22.60
2018-07-25T01:47:26.812Z,22.60
2018-07-25T01:49:55.276Z,22.70
2018-07-25T01:52:23.639Z,22.70
2018-07-25T01:54:52.239Z,22.70
2018-07-25T01:57:20.732Z,22.70
2018-07-25T01:59:49.224Z,22.50
2018-07-25T02:04:45.906Z,22.50
2018-07-25T02:07:14.341Z,22.40
2018-07-25T02:09:42.943Z,22.40
2018-07-25T02:12:11.425Z,22.40
2018-07-25T02:17:07.934Z,22.30
2018-07-25T02:19:36.387Z,22.30
2018-07-25T02:22:04.770Z,22.20
2018-07-25T02:24:33.288Z,22.20
2018-07-25T02:27:01.822Z,22.10
2018-07-25T02:29:30.253Z,22.10
2018-07-25T02:31:58.864Z,22.10
2018-07-25T02:34:27.449Z,22.20
2018-07-25T02:39:24.220Z,22.20
2018-07-25T02:46:49.451Z,22.10
2018-07-25T02:49:17.928Z,22.10
2018-07-25T02:51:46.321Z,22.10
2018-07-25T02:54:14.792Z,22.10
2018-07-25T02:59:11.435Z,22.10
2018-07-25T03:01:40.240Z,22.00
2018-07-25T03:04:08.696Z,21.90
2018-07-25T03:06:37.143Z,21.80
2018-07-25T03:09:07.884Z,21.80
2018-07-25T03:11:36.444Z,21.70
2018-07-25T03:14:04.893Z,21.70
2018-07-25T03:19:01.647Z,21.60
2018-07-25T03:23:58.196Z,21.80
2018-07-25T03:26:26.626Z,21.70
2018-07-25T03:28:55.100Z,21.70
2018-07-25T03:31:23.588Z,21.60
2018-07-25T03:33:51.936Z,21.50
2018-07-25T03:38:48.596Z,21.40
2018-07-25T03:41:16.996Z,21.50
2018-07-25T03:43:45.428Z,21.60
2018-07-25T03:51:10.761Z,21.30
2018-07-25T03:53:39.384Z,21.30
2018-07-25T03:58:35.920Z,21.20
2018-07-25T04:01:04.420Z,21.10
2018-07-25T04:06:01.041Z,21.20
2018-07-25T04:08:29.924Z,21.30
2018-07-25T04:10:58.419Z,21.50
2018-07-25T04:13:26.903Z,21.40
2018-07-25T04:15:55.308Z,21.30
2018-07-25T04:18:23.764Z,21.30
2018-07-25T04:20:52.162Z,21.20
2018-07-25T04:23:20.664Z,21.20
2018-07-25T04:25:49.147Z,21.10
2018-07-25T04:28:17.595Z,21.10
2018-07-25T04:30:46.200Z,21.00
2018-07-25T04:35:42.761Z,21.10
2018-07-25T04:40:39.944Z,21.20
2018-07-25T04:43:08.294Z,21.20
2018-07-25T04:45:36.717Z,21.30
2018-07-25T04:48:05.508Z,21.50
2018-07-25T04:50:33.875Z,21.50
2018-07-25T04:53:02.428Z,21.60
2018-07-25T04:55:30.920Z,21.60
2018-07-25T04:58:00.457Z,21.70
2018-07-25T05:00:29.024Z,21.80
2018-07-25T05:02:57.476Z,21.80
2018-07-25T05:05:26.751Z,21.90
2018-07-25T05:07:55.192Z,21.90
2018-07-25T05:10:23.840Z,22.00
2018-07-25T05:12:52.528Z,21.90
2018-07-25T05:15:21.294Z,21.90
2018-07-25T05:17:49.930Z,21.90
2018-07-25T05:20:20.910Z,21.90
2018-07-25T05:22:50.655Z,22.00
2018-07-25T05:25:19.932Z,22.00
2018-07-25T05:27:49.247Z,22.10
2018-07-25T05:30:18.341Z,22.20
2018-07-25T05:32:47.136Z,22.10
2018-07-25T05:35:15.601Z,22.00
2018-07-25T05:37:45.009Z,22.00
2018-07-25T05:40:15.068Z,22.00
2018-07-25T05:42:43.428Z,22.00
2018-07-25T05:45:11.797Z,22.10
2018-07-25T05:47:40.156Z,22.20
2018-07-25T05:50:08.580Z,22.20
2018-07-25T05:52:36.935Z,22.30
2018-07-25T05:55:05.724Z,22.30
2018-07-25T05:57:34.428Z,22.30
2018-07-25T06:00:04.062Z,22.30
2018-07-25T06:02:32.410Z,22.30
2018-07-25T06:05:00.868Z,22.40
2018-07-25T06:07:29.584Z,22.40
2018-07-25T06:09:58.833Z,22.50
2018-07-25T06:12:28.299Z,22.50
2018-07-25T06:14:57.680Z,22.60
2018-07-25T06:17:26.525Z,22.60
2018-07-25T06:19:54.889Z,22.70
2018-07-25T06:22:23.315Z,22.70
2018-07-25T06:24:51.912Z,22.70
2018-07-25T06:27:20.296Z,22.70
2018-07-25T06:32:16.768Z,23.10
2018-07-25T06:34:45.147Z,23.60
2018-07-25T06:37:13.735Z,23.90
2018-07-25T06:39:42.154Z,24.10
2018-07-25T06:42:10.701Z,24.30
2018-07-25T06:44:39.309Z,24.40
2018-07-25T06:47:07.666Z,24.40
2018-07-25T06:49:36.066Z,24.40
2018-07-25T06:52:04.472Z,24.40
2018-07-25T06:54:32.867Z,24.60
2018-07-25T06:57:01.254Z,24.90
2018-07-25T06:59:30.004Z,25.10
2018-07-25T07:01:58.400Z,25.20
2018-07-25T07:04:26.792Z,25.10
2018-07-25T07:06:55.185Z,25.20
2018-07-25T07:09:23.524Z,25.20
2018-07-25T07:14:20.044Z,25.30
2018-07-25T07:16:48.519Z,25.30
2018-07-25T07:19:16.888Z,25.30
2018-07-25T07:24:13.523Z,25.30
2018-07-25T07:26:41.877Z,25.30
2018-07-25T07:29:11.135Z,25.20
2018-07-25T07:31:39.473Z,25.20
2018-07-25T07:34:08.069Z,25.20
2018-07-25T07:39:08.053Z,25.20
2018-07-25T07:41:36.473Z,25.20
2018-07-25T07:44:05.543Z,25.20
2018-07-25T07:46:33.892Z,25.20
2018-07-25T07:49:02.601Z,25.00
2018-07-25T07:51:31.052Z,24.90
2018-07-25T07:53:59.461Z,24.80
2018-07-25T07:56:27.788Z,24.70
2018-07-25T08:01:24.745Z,24.70
2018-07-25T08:03:53.136Z,24.90
2018-07-25T08:06:21.511Z,24.80
2018-07-25T08:08:50.191Z,24.70
2018-07-25T08:11:18.563Z,24.50
2018-07-25T08:13:47.908Z,24.50
2018-07-25T08:16:17.156Z,24.50
2018-07-25T08:18:45.555Z,24.40
2018-07-25T08:21:14.443Z,24.40
2018-07-25T08:23:43.571Z,24.50
2018-07-25T08:26:12.016Z,24.60
2018-07-25T08:28:40.376Z,24.50
2018-07-25T08:31:08.977Z,24.40
2018-07-25T08:33:37.743Z,24.30
2018-07-25T08:36:06.075Z,24.20
2018-07-25T08:38:37.440Z,24.20
2018-07-25T08:41:06.296Z,24.30
2018-07-25T08:46:03.540Z,24.10
2018-07-25T08:48:31.940Z,24.10
2018-07-25T08:51:00.344Z,24.00
2018-07-25T08:53:29.013Z,24.00
2018-07-25T08:55:57.353Z,24.00
2018-07-25T09:00:54.512Z,23.60
2018-07-25T09:03:23.032Z,23.50
2018-07-25T09:05:51.366Z,23.50
2018-07-25T09:08:19.716Z,23.60
2018-07-25T09:10:48.072Z,23.60
2018-07-25T09:15:44.758Z,23.50
2018-07-25T09:18:13.163Z,23.50
2018-07-25T09:20:41.583Z,23.50
2018-07-25T09:23:10.108Z,23.40
2018-07-25T09:25:38.553Z,23.40
2018-07-25T09:28:07.084Z,23.40
2018-07-25T09:30:35.645Z,23.40
2018-07-25T09:33:04.081Z,23.40
2018-07-25T09:38:03.959Z,23.40
2018-07-25T09:40:32.383Z,23.50
2018-07-25T09:43:00.968Z,23.40
2018-07-25T09:47:58.152Z,23.50
2018-07-25T09:50:26.536Z,23.60
2018-07-25T09:52:54.949Z,23.40
2018-07-25T09:55:23.319Z,23.30
2018-07-25T09:57:51.714Z,23.30
2018-07-25T10:00:27.272Z,23.40
2018-07-25T10:02:55.654Z,23.80
2018-07-25T10:05:24.135Z,24.00
2018-07-25T10:07:52.775Z,24.20
2018-07-25T10:12:49.225Z,24.20
2018-07-25T10:15:17.675Z,24.30
2018-07-25T10:17:45.955Z,24.40
2018-07-25T10:20:14.305Z,24.50
2018-07-25T10:22:42.717Z,24.50
2018-07-25T10:25:11.440Z,24.60
2018-07-25T10:27:39.792Z,24.70
2018-07-25T10:30:08.165Z,24.80
2018-07-25T10:32:36.515Z,24.90
2018-07-25T10:35:04.873Z,25.00
2018-07-25T10:37:33.376Z,25.20
2018-07-25T10:40:01.750Z,25.30
2018-07-25T10:42:30.220Z,25.40
2018-07-25T10:44:58.612Z,25.60
2018-07-25T10:47:26.972Z,26.00
2018-07-25T10:49:55.480Z,26.40
2018-07-25T10:52:25.036Z,26.50
2018-07-25T10:54:53.412Z,27.10
2018-07-25T10:57:21.808Z,27.50
2018-07-25T10:59:50.219Z,27.70
2018-07-25T11:02:18.693Z,27.80
2018-07-25T11:04:47.040Z,27.90
2018-07-25T11:09:43.726Z,28.70
2018-07-25T11:12:12.060Z,29.00
2018-07-25T11:14:40.912Z,29.40
2018-07-25T11:17:09.292Z,29.80
2018-07-25T11:19:37.752Z,29.70
2018-07-25T11:22:06.167Z,29.80
2018-07-25T11:24:34.589Z,29.50
2018-07-25T11:27:02.984Z,30.20
2018-07-25T11:29:31.431Z,30.50
2018-07-25T11:31:59.831Z,30.90
2018-07-25T11:34:28.208Z,31.00
2018-07-25T11:39:24.884Z,30.50
2018-07-25T11:41:53.289Z,30.30
2018-07-25T11:44:21.770Z,30.80
2018-07-25T11:46:50.236Z,30.80
2018-07-25T11:49:18.640Z,31.10
2018-07-25T11:51:47.626Z,31.00
2018-07-25T11:54:16.109Z,31.10
2018-07-25T11:56:44.565Z,31.60
2018-07-25T11:59:12.973Z,31.60
2018-07-25T12:01:41.509Z,31.40
2018-07-25T12:04:09.929Z,31.60
2018-07-25T12:06:38.549Z,31.90
2018-07-25T12:09:08.959Z,31.80
2018-07-25T12:11:42.796Z,32.40
2018-07-25T12:14:11.268Z,32.40
2018-07-25T12:16:39.644Z,32.40
2018-07-25T12:19:08.173Z,32.10
2018-07-25T12:21:36.649Z,32.00
2018-07-25T12:24:05.131Z,32.20
2018-07-25T12:26:33.582Z,31.90
2018-07-25T12:29:01.952Z,32.60
2018-07-25T12:31:30.372Z,32.80
2018-07-25T12:38:55.722Z,33.50
2018-07-25T12:41:24.143Z,33.40
2018-07-25T12:43:52.597Z,33.70
2018-07-25T12:46:21.389Z,33.60
2018-07-25T12:48:49.999Z,33.60
2018-07-25T12:51:18.441Z,33.50
2018-07-25T12:53:46.926Z,34.10
2018-07-25T12:56:15.467Z,34.20
2018-07-25T13:01:12.000Z,33.90
2018-07-25T13:03:40.420Z,34.30
2018-07-25T13:06:08.870Z,34.30
2018-07-25T13:08:37.271Z,33.90
2018-07-25T13:11:05.793Z,33.90
2018-07-25T13:13:34.223Z,33.80
2018-07-25T13:16:02.756Z,34.00
2018-07-25T13:18:31.264Z,34.00
2018-07-25T13:20:59.976Z,34.10
2018-07-25T13:23:28.651Z,33.90
2018-07-25T13:25:58.757Z,34.40
2018-07-25T13:28:27.204Z,34.50
2018-07-25T13:30:55.588Z,34.40
2018-07-25T13:33:24.293Z,34.40
2018-07-25T13:35:53.114Z,34.40
2018-07-25T13:38:22.030Z,34.50
2018-07-25T13:40:50.464Z,34.40
2018-07-25T13:43:18.920Z,34.70
2018-07-25T13:45:47.519Z,34.70
2018-07-25T13:48:15.781Z,34.60
2018-07-25T13:50:44.213Z,34.50
2018-07-25T13:53:12.606Z,34.40
2018-07-25T13:55:41.783Z,34.30
2018-07-25T14:00:38.421Z,34.60
2018-07-25T14:03:06.855Z,34.20
2018-07-25T14:05:35.248Z,34.30
2018-07-25T14:08:03.668Z,34.30
2018-07-25T14:13:00.228Z,34.00
2018-07-25T14:15:28.636Z,34.10
2018-07-25T14:17:57.068Z,34.20
2018-07-25T14:20:25.413Z,34.20
2018-07-25T14:22:53.907Z,34.10
2018-07-25T14:25:22.341Z,34.20
2018-07-25T14:30:18.882Z,33.90
2018-07-25T14:32:47.203Z,34.10
2018-07-25T14:35:16.419Z,34.20
2018-07-25T14:37:44.809Z,34.20
2018-07-25T14:40:13.907Z,34.20
2018-07-25T14:42:42.228Z,34.00
2018-07-25T14:47:38.728Z,34.10
2018-07-25T14:50:07.938Z,33.80
2018-07-25T14:52:36.411Z,33.60
2018-07-25T14:55:05.034Z,33.70
2018-07-25T15:00:02.035Z,33.90
2018-07-25T15:02:43.837Z,33.80
2018-07-25T15:05:24.282Z,33.60
2018-07-25T15:08:12.659Z,33.50
2018-07-25T15:10:57.249Z,33.70
2018-07-25T15:13:30.433Z,33.50
2018-07-25T15:16:07.072Z,33.40
2018-07-25T15:18:35.639Z,33.60
2018-07-25T15:21:04.110Z,33.60
2018-07-25T15:23:43.853Z,33.50
2018-07-25T15:28:40.725Z,32.80
2018-07-25T15:31:10.705Z,33.00
2018-07-25T15:33:39.297Z,33.00
2018-07-25T15:36:07.697Z,32.50
2018-07-25T15:38:36.089Z,32.30
2018-07-25T15:41:05.443Z,32.20
2018-07-25T15:43:33.824Z,32.00
2018-07-25T15:46:06.831Z,32.10
2018-07-25T15:48:44.403Z,31.90
2018-07-25T15:51:14.738Z,31.70
2018-07-25T15:56:14.978Z,31.70
2018-07-25T15:58:46.203Z,31.50
2018-07-25T16:01:16.509Z,31.40
2018-07-25T16:03:47.990Z,31.30
2018-07-25T16:08:44.620Z,31.30
2018-07-25T16:11:13.212Z,31.30
2018-07-25T16:13:41.826Z,31.30
2018-07-25T16:18:38.308Z,31.30
2018-07-25T16:21:06.846Z,31.30
2018-07-25T16:23:35.476Z,31.10
2018-07-25T16:28:32.348Z,30.90
2018-07-25T16:31:00.810Z,30.90
2018-07-25T16:33:29.212Z,30.70
2018-07-25T16:35:57.777Z,30.60
2018-07-25T16:38:26.268Z,30.50
2018-07-25T16:40:54.764Z,30.50
2018-07-25T16:43:23.136Z,30.60
2018-07-25T16:45:51.519Z,30.50
2018-07-25T16:48:19.916Z,30.50
2018-07-25T16:50:48.301Z,30.60
2018-07-25T16:53:16.708Z,30.50
2018-07-25T16:55:45.861Z,30.40
2018-07-25T16:58:14.320Z,30.30
2018-07-25T17:00:43.597Z,30.20
2018-07-25T17:03:12.068Z,30.10
2018-07-25T17:05:40.495Z,30.10
2018-07-25T17:08:08.924Z,30.10
2018-07-25T17:10:37.329Z,30.00
2018-07-25T17:15:33.876Z,29.90
2018-07-25T17:18:02.235Z,29.90
2018-07-25T17:20:30.678Z,29.80
2018-07-25T17:22:59.023Z,29.70
2018-07-25T17:25:27.475Z,29.70
2018-07-25T17:27:55.946Z,29.70
2018-07-25T17:30:24.406Z,29.40
2018-07-25T17:32:52.764Z,29.40
2018-07-25T17:35:21.326Z,29.40
2018-07-25T17:37:49.715Z,29.40
2018-07-25T17:40:18.064Z,29.40
2018-07-25T17:42:46.442Z,29.30
2018-07-25T17:45:14.807Z,29.20
2018-07-25T17:47:44.073Z,29.30
2018-07-25T17:50:12.460Z,29.30
2018-07-25T17:52:40.840Z,29.20
2018-07-25T17:55:09.232Z,29.10
2018-07-25T17:57:37.653Z,29.10
2018-07-25T18:00:08.358Z,29.10
2018-07-25T18:02:37.784Z,29.10
2018-07-25T18:05:07.182Z,29.00
2018-07-25T18:07:36.317Z,29.00
2018-07-25T18:10:05.461Z,28.90
2018-07-25T18:12:34.082Z,28.90
2018-07-25T18:15:03.120Z,29.00
2018-07-25T18:17:31.591Z,29.00
2018-07-25T18:20:00.004Z,28.90
2018-07-25T18:22:28.426Z,28.80
2018-07-25T18:24:56.852Z,28.70
2018-07-25T18:27:25.416Z,28.70
2018-07-25T18:29:53.783Z,28.70
2018-07-25T18:32:22.206Z,28.60
2018-07-25T18:34:50.589Z,28.50
2018-07-25T18:37:18.991Z,28.60
2018-07-25T18:39:47.560Z,28.50
2018-07-25T18:42:16.092Z,28.50
2018-07-25T18:44:44.514Z,28.40
2018-07-25T18:47:13.117Z,28.30
2018-07-25T18:49:41.601Z,28.30
2018-07-25T18:52:10.304Z,28.20
2018-07-25T18:54:39.782Z,28.20
2018-07-25T18:57:08.684Z,28.10
2018-07-25T18:59:40.349Z,28.10
2018-07-25T19:02:18.367Z,28.00
2018-07-25T19:04:47.751Z,28.00
2018-07-25T19:07:16.641Z,28.00
2018-07-25T19:09:45.046Z,27.90
2018-07-25T19:14:48.132Z,27.70
2018-07-25T19:17:18.499Z,27.60
2018-07-25T19:19:47.084Z,27.60
2018-07-25T19:22:18.283Z,27.50
2018-07-25T19:24:47.367Z,27.30
2018-07-25T19:27:18.210Z,27.40
2018-07-25T19:29:47.065Z,27.30
2018-07-25T19:34:51.156Z,27.20
2018-07-25T19:37:19.604Z,27.10
2018-07-25T19:39:49.039Z,27.20
2018-07-25T19:42:17.715Z,27.20
2018-07-25T19:44:46.276Z,27.00
2018-07-25T19:47:14.700Z,26.80
2018-07-25T19:52:11.483Z,26.60
2018-07-25T19:54:40.021Z,26.40
2018-07-25T19:57:08.560Z,26.40
2018-07-25T19:59:37.013Z,26.20
2018-07-25T20:02:06.644Z,26.10
2018-07-25T20:04:35.640Z,26.00
2018-07-25T20:07:04.251Z,26.10
2018-07-25T20:09:32.689Z,26.00
2018-07-25T20:12:01.208Z,25.80
2018-07-25T20:14:34.865Z,25.80
2018-07-25T20:17:03.834Z,25.70
2018-07-25T20:19:32.294Z,25.60
2018-07-25T20:22:00.708Z,25.60
2018-07-25T20:24:29.196Z,25.60
2018-07-25T20:26:57.609Z,25.50
2018-07-25T20:29:26.087Z,25.40
2018-07-25T20:31:54.674Z,25.40
2018-07-25T20:34:23.071Z,25.40
2018-07-25T20:36:51.552Z,25.30
2018-07-25T20:39:19.982Z,25.20
2018-07-25T20:41:48.544Z,25.20
2018-07-25T20:44:16.969Z,25.40
2018-07-25T20:46:45.553Z,25.40
2018-07-25T20:49:13.924Z,25.30
2018-07-25T20:51:42.290Z,25.30
2018-07-25T20:54:10.747Z,25.30
2018-07-25T20:56:39.336Z,25.20
2018-07-25T20:59:07.782Z,25.10
2018-07-25T21:01:36.331Z,25.00
2018-07-25T21:04:05.692Z,25.10
2018-07-25T21:06:34.084Z,25.00
2018-07-25T21:09:03.178Z,25.00
2018-07-25T21:11:31.588Z,24.90
2018-07-25T21:13:59.948Z,24.80
2018-07-25T21:18:56.485Z,24.80
2018-07-25T21:21:24.915Z,24.80
2018-07-25T21:23:53.505Z,24.70
2018-07-25T21:26:21.898Z,24.60
2018-07-25T21:28:50.265Z,24.70
2018-07-25T21:31:18.815Z,24.70
2018-07-25T21:33:48.665Z,24.70
2018-07-25T21:36:17.056Z,24.60
2018-07-25T21:38:45.423Z,24.60
2018-07-25T21:41:13.859Z,24.50
2018-07-25T21:43:42.236Z,24.50
2018-07-25T21:46:10.851Z,24.50
2018-07-25T21:48:39.232Z,24.50
2018-07-25T21:51:07.629Z,24.50
2018-07-25T21:53:36.041Z,24.50
2018-07-25T21:56:04.456Z,24.50
2018-07-25T21:58:33.624Z,24.50
2018-07-25T22:01:07.584Z,24.40
2018-07-25T22:03:35.999Z,24.40
2018-07-25T22:06:04.410Z,24.40
2018-07-25T22:08:32.800Z,24.40
2018-07-25T22:11:01.877Z,24.40
2018-07-25T22:13:30.255Z,24.40
2018-07-25T22:15:58.754Z,24.30
2018-07-25T22:18:27.254Z,24.30
2018-07-25T22:20:55.671Z,24.30
2018-07-25T22:23:24.068Z,24.20
2018-07-25T22:25:52.508Z,24.20
2018-07-25T22:28:21.972Z,24.10
2018-07-25T22:30:58.247Z,24.20
2018-07-25T22:33:27.116Z,24.10
2018-07-25T22:35:55.495Z,24.10
2018-07-25T22:41:08.788Z,24.00
2018-07-25T22:43:38.136Z,24.00
2018-07-25T22:46:08.020Z,24.00
2018-07-25T22:48:36.544Z,23.90
2018-07-25T22:51:05.103Z,23.80
2018-07-25T22:53:33.473Z,23.90
2018-07-25T22:56:01.975Z,23.80
2018-07-25T22:58:30.860Z,23.70
2018-07-25T23:00:59.356Z,23.70
2018-07-25T23:03:27.783Z,23.70
2018-07-25T23:05:56.174Z,23.70
2018-07-25T23:08:24.561Z,23.70
2018-07-25T23:10:52.926Z,23.70
2018-07-25T23:13:21.420Z,23.60
2018-07-25T23:15:49.799Z,23.50
2018-07-25T23:18:18.147Z,23.60
2018-07-25T23:20:46.544Z,23.60
2018-07-25T23:23:14.900Z,23.60
2018-07-25T23:25:43.377Z,23.60
2018-07-25T23:30:40.032Z,23.50
2018-07-25T23:33:08.624Z,23.50
2018-07-25T23:35:37.051Z,23.50
2018-07-25T23:38:05.424Z,23.60
2018-07-25T23:40:33.807Z,23.50
2018-07-25T23:43:02.180Z,23.50
2018-07-25T23:45:30.567Z,23.50
2018-07-25T23:47:58.916Z,23.50
2018-07-25T23:50:27.460Z,23.50
2018-07-25T23:52:55.856Z,23.50
2018-07-25T23:57:52.700Z,23.40
